KPTB

Dinwiddie County Airport

Petersburg, Virginia, USA
METAR KPTB 231035Z AUTO 00000KT 10SM CLR 02/01 A3014 RMK AO2 T00150006
Observed Flight Rules
Oct-23 @ 10:35 UTC (5 minutes ago) Visual Flight Rules
Visibility Clouds
10 miles
  • Clear skies
Temperatures Readings
Current 2°C / 36°F
Dewpoint 1°C / 34°F
Humidity 93%
Altimeter 30.14" Hg
Pressure 1021 hPa
Elevation 59
METAR KPTB 231035Z AUTO 00000KT 10SM CLR 02/01 A3014 RMK AO2 T00150006
Observed Flight Rules
Oct-23 @ 10:35 UTC
(5 minutes ago)
VFR
Clouds
  • Clear skies
Temperature Dewpoint
2°C / 36°F 1°C / 34°F
Humidity Altimeter Pressure
93% 30.14" Hg 1021 hPa